sensor_id;sensor_type;location;lat;lon;timestamp;P1;durP1;ratioP1;P2;durP2;ratioP2
3573;SDS011;1801;51.050;6.246;2023-04-03T00:01:52;12.47;;;7.10;;
3573;SDS011;1801;51.050;6.246;2023-04-03T00:04:17;10.27;;;6.77;;
3573;SDS011;1801;51.050;6.246;2023-04-03T00:06:42;12.80;;;5.87;;
3573;SDS011;1801;51.050;6.246;2023-04-03T00:09:08;11.20;;;6.70;;
3573;SDS011;1801;51.050;6.246;2023-04-03T00:11:33;7.77;;;5.73;;
3573;SDS011;1801;51.050;6.246;2023-04-03T00:13:58;11.03;;;6.30;;
3573;SDS011;1801;51.050;6.246;2023-04-03T00:16:23;12.63;;;6.50;;
3573;SDS011;1801;51.050;6.246;2023-04-03T00:18:48;9.10;;;5.60;;
3573;SDS011;1801;51.050;6.246;2023-04-03T00:21:13;9.63;;;6.80;;
3573;SDS011;1801;51.050;6.246;2023-04-03T00:23:39;8.17;;;5.10;;
3573;SDS011;1801;51.050;6.246;2023-04-03T00:26:04;6.70;;;5.00;;
3573;SDS011;1801;51.050;6.246;2023-04-03T00:28:30;8.07;;;5.50;;
3573;SDS011;1801;51.050;6.246;2023-04-03T00:30:55;9.17;;;6.20;;
3573;SDS011;1801;51.050;6.246;2023-04-03T00:33:20;9.37;;;5.30;;
3573;SDS011;1801;51.050;6.246;2023-04-03T00:35:46;8.10;;;5.80;;
3573;SDS011;1801;51.050;6.246;2023-04-03T00:38:13;8.65;;;6.28;;
3573;SDS011;1801;51.050;6.246;2023-04-03T00:40:39;9.10;;;5.33;;
3573;SDS011;1801;51.050;6.246;2023-04-03T00:43:11;10.07;;;6.00;;
3573;SDS011;1801;51.050;6.246;2023-04-03T00:45:40;12.95;;;6.38;;
3573;SDS011;1801;51.050;6.246;2023-04-03T00:48:07;9.10;;;5.22;;
3573;SDS011;1801;51.050;6.246;2023-04-03T00:50:34;12.82;;;5.78;;
3573;SDS011;1801;51.050;6.246;2023-04-03T00:53:00;12.25;;;6.18;;
3573;SDS011;1801;51.050;6.246;2023-04-03T00:55:25;11.50;;;5.60;;
3573;SDS011;1801;51.050;6.246;2023-04-03T00:57:51;10.93;;;4.87;;
3573;SDS011;1801;51.050;6.246;2023-04-03T01:00:17;9.90;;;6.43;;
3573;SDS011;1801;51.050;6.246;2023-04-03T01:02:43;16.15;;;5.57;;
3573;SDS011;1801;51.050;6.246;2023-04-03T01:05:08;9.93;;;4.93;;
3573;SDS011;1801;51.050;6.246;2023-04-03T01:07:34;15.23;;;5.97;;
3573;SDS011;1801;51.050;6.246;2023-04-03T01:10:03;9.02;;;5.70;;
3573;SDS011;1801;51.050;6.246;2023-04-03T01:12:29;13.75;;;5.80;;
3573;SDS011;1801;51.050;6.246;2023-04-03T01:14:57;8.32;;;5.68;;
3573;SDS011;1801;51.050;6.246;2023-04-03T01:22:32;11.15;;;5.95;;
3573;SDS011;1801;51.050;6.246;2023-04-03T01:25:02;7.65;;;5.65;;
3573;SDS011;1801;51.050;6.246;2023-04-03T01:27:28;15.83;;;8.60;;
3573;SDS011;1801;51.050;6.246;2023-04-03T01:29:53;14.07;;;6.83;;
3573;SDS011;1801;51.050;6.246;2023-04-03T01:32:18;11.87;;;6.70;;
3573;SDS011;1801;51.050;6.246;2023-04-03T01:34:43;18.67;;;7.17;;
3573;SDS011;1801;51.050;6.246;2023-04-03T01:37:08;14.50;;;6.83;;
3573;SDS011;1801;51.050;6.246;2023-04-03T01:39:34;15.07;;;7.63;;
3573;SDS011;1801;51.050;6.246;2023-04-03T01:41:59;12.70;;;8.10;;
3573;SDS011;1801;51.050;6.246;2023-04-03T01:44:24;11.50;;;7.40;;
3573;SDS011;1801;51.050;6.246;2023-04-03T01:46:50;12.53;;;8.27;;
3573;SDS011;1801;51.050;6.246;2023-04-03T01:49:15;18.40;;;8.80;;
3573;SDS011;1801;51.050;6.246;2023-04-03T01:51:40;15.43;;;8.87;;
3573;SDS011;1801;51.050;6.246;2023-04-03T01:54:05;13.20;;;7.47;;
3573;SDS011;1801;51.050;6.246;2023-04-03T01:56:30;17.50;;;8.43;;
3573;SDS011;1801;51.050;6.246;2023-04-03T01:58:56;12.60;;;6.97;;
3573;SDS011;1801;51.050;6.246;2023-04-03T02:01:21;13.77;;;7.67;;
3573;SDS011;1801;51.050;6.246;2023-04-03T02:03:46;13.07;;;7.87;;
3573;SDS011;1801;51.050;6.246;2023-04-03T02:06:11;10.60;;;6.70;;
3573;SDS011;1801;51.050;6.246;2023-04-03T02:08:37;15.60;;;7.80;;
3573;SDS011;1801;51.050;6.246;2023-04-03T02:11:02;14.13;;;8.10;;
3573;SDS011;1801;51.050;6.246;2023-04-03T02:13:27;16.30;;;7.40;;
3573;SDS011;1801;51.050;6.246;2023-04-03T02:15:52;15.87;;;7.90;;
3573;SDS011;1801;51.050;6.246;2023-04-03T02:18:17;13.27;;;8.10;;
3573;SDS011;1801;51.050;6.246;2023-04-03T02:20:43;15.93;;;8.17;;
3573;SDS011;1801;51.050;6.246;2023-04-03T02:23:08;13.47;;;7.03;;
3573;SDS011;1801;51.050;6.246;2023-04-03T02:25:34;14.07;;;7.90;;
3573;SDS011;1801;51.050;6.246;2023-04-03T02:27:59;16.33;;;7.27;;
3573;SDS011;1801;51.050;6.246;2023-04-03T02:30:24;13.43;;;8.33;;
3573;SDS011;1801;51.050;6.246;2023-04-03T02:32:50;13.83;;;8.63;;
3573;SDS011;1801;51.050;6.246;2023-04-03T02:35:15;15.20;;;8.40;;
3573;SDS011;1801;51.050;6.246;2023-04-03T02:37:40;14.00;;;7.40;;
3573;SDS011;1801;51.050;6.246;2023-04-03T02:40:06;15.43;;;8.40;;
3573;SDS011;1801;51.050;6.246;2023-04-03T02:42:32;13.50;;;7.87;;
3573;SDS011;1801;51.050;6.246;2023-04-03T02:44:57;11.30;;;7.43;;
3573;SDS011;1801;51.050;6.246;2023-04-03T02:47:22;14.03;;;8.30;;
3573;SDS011;1801;51.050;6.246;2023-04-03T02:49:47;17.40;;;8.80;;
3573;SDS011;1801;51.050;6.246;2023-04-03T02:52:13;11.53;;;7.73;;
3573;SDS011;1801;51.050;6.246;2023-04-03T02:54:38;21.13;;;9.07;;
3573;SDS011;1801;51.050;6.246;2023-04-03T02:57:04;11.93;;;7.80;;
3573;SDS011;1801;51.050;6.246;2023-04-03T02:59:29;15.13;;;8.60;;
3573;SDS011;1801;51.050;6.246;2023-04-03T03:01:55;22.53;;;9.73;;
3573;SDS011;1801;51.050;6.246;2023-04-03T03:04:20;14.37;;;8.73;;
3573;SDS011;1801;51.050;6.246;2023-04-03T03:06:45;17.67;;;8.13;;
3573;SDS011;1801;51.050;6.246;2023-04-03T03:09:11;15.67;;;8.37;;
3573;SDS011;1801;51.050;6.246;2023-04-03T03:11:38;15.55;;;8.23;;
3573;SDS011;1801;51.050;6.246;2023-04-03T03:14:03;18.20;;;8.33;;
3573;SDS011;1801;51.050;6.246;2023-04-03T03:16:28;21.00;;;10.00;;
3573;SDS011;1801;51.050;6.246;2023-04-03T03:18:53;22.10;;;8.70;;
3573;SDS011;1801;51.050;6.246;2023-04-03T03:21:19;15.30;;;8.00;;
3573;SDS011;1801;51.050;6.246;2023-04-03T03:23:44;14.47;;;8.00;;
3573;SDS011;1801;51.050;6.246;2023-04-03T03:26:10;14.20;;;9.90;;
3573;SDS011;1801;51.050;6.246;2023-04-03T03:28:36;13.45;;;8.02;;
3573;SDS011;1801;51.050;6.246;2023-04-03T03:31:01;16.73;;;8.10;;
3573;SDS011;1801;51.050;6.246;2023-04-03T03:33:26;17.60;;;9.93;;
3573;SDS011;1801;51.050;6.246;2023-04-03T03:35:52;15.63;;;7.90;;
3573;SDS011;1801;51.050;6.246;2023-04-03T03:38:17;16.17;;;7.83;;
3573;SDS011;1801;51.050;6.246;2023-04-03T03:40:43;15.50;;;8.77;;
3573;SDS011;1801;51.050;6.246;2023-04-03T03:43:08;15.10;;;9.43;;
3573;SDS011;1801;51.050;6.246;2023-04-03T03:45:33;19.33;;;10.10;;
3573;SDS011;1801;51.050;6.246;2023-04-03T03:47:58;18.20;;;9.60;;
3573;SDS011;1801;51.050;6.246;2023-04-03T03:50:24;24.63;;;9.03;;
3573;SDS011;1801;51.050;6.246;2023-04-03T03:52:49;16.80;;;8.77;;
3573;SDS011;1801;51.050;6.246;2023-04-03T03:55:14;13.53;;;8.37;;
3573;SDS011;1801;51.050;6.246;2023-04-03T03:57:40;16.03;;;9.17;;
3573;SDS011;1801;51.050;6.246;2023-04-03T04:00:05;16.70;;;9.13;;
3573;SDS011;1801;51.050;6.246;2023-04-03T04:02:32;17.85;;;9.20;;
3573;SDS011;1801;51.050;6.246;2023-04-03T04:04:57;17.93;;;9.67;;
3573;SDS011;1801;51.050;6.246;2023-04-03T04:07:22;15.43;;;8.73;;
3573;SDS011;1801;51.050;6.246;2023-04-03T04:09:48;18.17;;;9.40;;
3573;SDS011;1801;51.050;6.246;2023-04-03T04:12:13;25.07;;;9.80;;
3573;SDS011;1801;51.050;6.246;2023-04-03T04:14:38;16.73;;;8.80;;
3573;SDS011;1801;51.050;6.246;2023-04-03T04:17:03;12.67;;;8.33;;
3573;SDS011;1801;51.050;6.246;2023-04-03T04:19:29;14.13;;;8.13;;
3573;SDS011;1801;51.050;6.246;2023-04-03T04:21:54;17.97;;;8.70;;
3573;SDS011;1801;51.050;6.246;2023-04-03T04:24:19;14.57;;;9.20;;
3573;SDS011;1801;51.050;6.246;2023-04-03T04:26:45;23.00;;;9.73;;
3573;SDS011;1801;51.050;6.246;2023-04-03T04:29:10;20.97;;;10.00;;
3573;SDS011;1801;51.050;6.246;2023-04-03T04:31:35;18.60;;;10.90;;
3573;SDS011;1801;51.050;6.246;2023-04-03T04:34:00;16.47;;;9.00;;
3573;SDS011;1801;51.050;6.246;2023-04-03T04:36:26;20.40;;;9.20;;
3573;SDS011;1801;51.050;6.246;2023-04-03T04:38:51;16.10;;;8.30;;
3573;SDS011;1801;51.050;6.246;2023-04-03T04:41:18;24.20;;;9.27;;
3573;SDS011;1801;51.050;6.246;2023-04-03T04:43:43;11.73;;;7.90;;
3573;SDS011;1801;51.050;6.246;2023-04-03T04:46:09;12.97;;;7.77;;
3573;SDS011;1801;51.050;6.246;2023-04-03T04:48:36;17.08;;;8.10;;
3573;SDS011;1801;51.050;6.246;2023-04-03T04:51:01;18.70;;;8.00;;
3573;SDS011;1801;51.050;6.246;2023-04-03T04:53:27;14.83;;;8.87;;
3573;SDS011;1801;51.050;6.246;2023-04-03T04:55:52;18.30;;;8.27;;
3573;SDS011;1801;51.050;6.246;2023-04-03T04:58:18;18.57;;;9.07;;
3573;SDS011;1801;51.050;6.246;2023-04-03T05:00:43;14.80;;;9.13;;
3573;SDS011;1801;51.050;6.246;2023-04-03T05:03:08;17.50;;;8.77;;
3573;SDS011;1801;51.050;6.246;2023-04-03T05:05:34;15.90;;;8.93;;
3573;SDS011;1801;51.050;6.246;2023-04-03T05:08:00;15.68;;;8.20;;
3573;SDS011;1801;51.050;6.246;2023-04-03T05:10:25;14.93;;;7.70;;
3573;SDS011;1801;51.050;6.246;2023-04-03T05:12:50;19.70;;;8.50;;
3573;SDS011;1801;51.050;6.246;2023-04-03T05:15:16;15.03;;;7.50;;
3573;SDS011;1801;51.050;6.246;2023-04-03T05:17:41;12.50;;;7.33;;
3573;SDS011;1801;51.050;6.246;2023-04-03T05:20:06;21.80;;;7.83;;
3573;SDS011;1801;51.050;6.246;2023-04-03T05:22:31;14.27;;;6.80;;
3573;SDS011;1801;51.050;6.246;2023-04-03T05:24:57;16.90;;;6.93;;
3573;SDS011;1801;51.050;6.246;2023-04-03T05:27:22;10.70;;;6.40;;
3573;SDS011;1801;51.050;6.246;2023-04-03T05:29:49;15.65;;;6.95;;
3573;SDS011;1801;51.050;6.246;2023-04-03T05:32:14;12.03;;;6.20;;
3573;SDS011;1801;51.050;6.246;2023-04-03T05:34:39;19.03;;;6.10;;
3573;SDS011;1801;51.050;6.246;2023-04-03T05:37:05;11.27;;;6.23;;
3573;SDS011;1801;51.050;6.246;2023-04-03T05:39:30;17.60;;;8.37;;
3573;SDS011;1801;51.050;6.246;2023-04-03T05:41:56;10.52;;;6.70;;
3573;SDS011;1801;51.050;6.246;2023-04-03T05:44:21;10.80;;;5.50;;
3573;SDS011;1801;51.050;6.246;2023-04-03T05:46:46;13.90;;;6.40;;
3573;SDS011;1801;51.050;6.246;2023-04-03T05:49:12;9.93;;;5.93;;
3573;SDS011;1801;51.050;6.246;2023-04-03T05:51:38;10.40;;;5.30;;
3573;SDS011;1801;51.050;6.246;2023-04-03T05:54:09;16.70;;;5.13;;
3573;SDS011;1801;51.050;6.246;2023-04-03T05:56:34;15.15;;;5.65;;
3573;SDS011;1801;51.050;6.246;2023-04-03T05:59:00;10.30;;;5.90;;
3573;SDS011;1801;51.050;6.246;2023-04-03T06:01:25;7.27;;;4.77;;
3573;SDS011;1801;51.050;6.246;2023-04-03T06:03:51;10.20;;;5.40;;
3573;SDS011;1801;51.050;6.246;2023-04-03T06:06:16;18.87;;;5.80;;
3573;SDS011;1801;51.050;6.246;2023-04-03T06:08:42;9.43;;;5.57;;
3573;SDS011;1801;51.050;6.246;2023-04-03T06:11:08;6.65;;;4.43;;
3573;SDS011;1801;51.050;6.246;2023-04-03T06:13:34;10.00;;;5.40;;
3573;SDS011;1801;51.050;6.246;2023-04-03T06:16:00;7.28;;;4.82;;
3573;SDS011;1801;51.050;6.246;2023-04-03T06:18:25;8.47;;;4.47;;
3573;SDS011;1801;51.050;6.246;2023-04-03T06:20:51;8.57;;;4.90;;
3573;SDS011;1801;51.050;6.246;2023-04-03T06:23:16;10.30;;;6.10;;
3573;SDS011;1801;51.050;6.246;2023-04-03T06:25:41;10.33;;;4.93;;
3573;SDS011;1801;51.050;6.246;2023-04-03T06:28:07;12.47;;;4.83;;
3573;SDS011;1801;51.050;6.246;2023-04-03T06:30:34;18.02;;;5.43;;
3573;SDS011;1801;51.050;6.246;2023-04-03T06:33:00;7.90;;;5.07;;
3573;SDS011;1801;51.050;6.246;2023-04-03T06:35:25;8.00;;;4.73;;
3573;SDS011;1801;51.050;6.246;2023-04-03T06:37:51;11.95;;;5.45;;
3573;SDS011;1801;51.050;6.246;2023-04-03T06:40:21;9.93;;;5.50;;
3573;SDS011;1801;51.050;6.246;2023-04-03T06:42:46;12.43;;;5.25;;
3573;SDS011;1801;51.050;6.246;2023-04-03T06:45:12;9.67;;;5.13;;
3573;SDS011;1801;51.050;6.246;2023-04-03T06:47:37;13.20;;;7.13;;
3573;SDS011;1801;51.050;6.246;2023-04-03T06:50:02;12.93;;;5.47;;
3573;SDS011;1801;51.050;6.246;2023-04-03T06:52:27;12.73;;;5.97;;
3573;SDS011;1801;51.050;6.246;2023-04-03T06:54:53;11.27;;;5.20;;
3573;SDS011;1801;51.050;6.246;2023-04-03T06:57:22;11.27;;;5.60;;
3573;SDS011;1801;51.050;6.246;2023-04-03T06:59:47;13.03;;;5.40;;
3573;SDS011;1801;51.050;6.246;2023-04-03T07:02:12;9.63;;;5.17;;
3573;SDS011;1801;51.050;6.246;2023-04-03T07:04:37;8.63;;;5.17;;
3573;SDS011;1801;51.050;6.246;2023-04-03T07:07:03;7.17;;;4.80;;
3573;SDS011;1801;51.050;6.246;2023-04-03T07:09:28;10.00;;;5.10;;
3573;SDS011;1801;51.050;6.246;2023-04-03T07:11:53;9.10;;;6.00;;
3573;SDS011;1801;51.050;6.246;2023-04-03T07:14:18;7.60;;;5.23;;
3573;SDS011;1801;51.050;6.246;2023-04-03T07:16:43;15.23;;;5.60;;
3573;SDS011;1801;51.050;6.246;2023-04-03T07:19:08;8.23;;;4.37;;
3573;SDS011;1801;51.050;6.246;2023-04-03T07:21:34;8.90;;;5.20;;
3573;SDS011;1801;51.050;6.246;2023-04-03T07:24:00;10.80;;;5.30;;
3573;SDS011;1801;51.050;6.246;2023-04-03T07:26:25;10.93;;;5.47;;
3573;SDS011;1801;51.050;6.246;2023-04-03T07:28:50;13.17;;;5.57;;
3573;SDS011;1801;51.050;6.246;2023-04-03T07:31:16;16.63;;;6.30;;
3573;SDS011;1801;51.050;6.246;2023-04-03T07:33:43;11.13;;;5.07;;
3573;SDS011;1801;51.050;6.246;2023-04-03T07:36:09;10.20;;;4.90;;
3573;SDS011;1801;51.050;6.246;2023-04-03T07:38:35;11.43;;;5.10;;
3573;SDS011;1801;51.050;6.246;2023-04-03T07:41:00;7.05;;;4.13;;
3573;SDS011;1801;51.050;6.246;2023-04-03T07:43:26;10.27;;;3.97;;
3573;SDS011;1801;51.050;6.246;2023-04-03T07:45:51;5.60;;;3.93;;
3573;SDS011;1801;51.050;6.246;2023-04-03T07:48:17;11.00;;;3.50;;
3573;SDS011;1801;51.050;6.246;2023-04-03T07:50:43;7.25;;;4.03;;
3573;SDS011;1801;51.050;6.246;2023-04-03T07:53:08;4.87;;;3.43;;
3573;SDS011;1801;51.050;6.246;2023-04-03T07:55:34;9.67;;;3.80;;
3573;SDS011;1801;51.050;6.246;2023-04-03T07:57:59;7.03;;;4.43;;
3573;SDS011;1801;51.050;6.246;2023-04-03T08:00:24;7.87;;;3.20;;
3573;SDS011;1801;51.050;6.246;2023-04-03T08:02:50;7.10;;;3.33;;
3573;SDS011;1801;51.050;6.246;2023-04-03T08:05:19;6.20;;;3.50;;
3573;SDS011;1801;51.050;6.246;2023-04-03T08:07:45;9.23;;;3.17;;
3573;SDS011;1801;51.050;6.246;2023-04-03T08:10:11;6.73;;;3.40;;
3573;SDS011;1801;51.050;6.246;2023-04-03T08:12:36;5.40;;;2.80;;
3573;SDS011;1801;51.050;6.246;2023-04-03T08:15:02;6.10;;;2.53;;
3573;SDS011;1801;51.050;6.246;2023-04-03T08:17:27;4.80;;;3.27;;
3573;SDS011;1801;51.050;6.246;2023-04-03T08:19:52;11.10;;;3.30;;
3573;SDS011;1801;51.050;6.246;2023-04-03T08:22:17;5.00;;;2.80;;
3573;SDS011;1801;51.050;6.246;2023-04-03T08:24:43;6.97;;;2.90;;
3573;SDS011;1801;51.050;6.246;2023-04-03T08:27:08;3.40;;;2.47;;
3573;SDS011;1801;51.050;6.246;2023-04-03T08:29:33;4.73;;;2.73;;
3573;SDS011;1801;51.050;6.246;2023-04-03T08:31:58;6.60;;;2.50;;
3573;SDS011;1801;51.050;6.246;2023-04-03T08:34:23;5.43;;;2.43;;
3573;SDS011;1801;51.050;6.246;2023-04-03T08:36:49;3.23;;;2.00;;
3573;SDS011;1801;51.050;6.246;2023-04-03T08:39:14;6.60;;;2.83;;
3573;SDS011;1801;51.050;6.246;2023-04-03T08:41:42;4.30;;;2.00;;
3573;SDS011;1801;51.050;6.246;2023-04-03T08:46:42;5.67;;;2.17;;
3573;SDS011;1801;51.050;6.246;2023-04-03T08:49:16;7.83;;;2.57;;
3573;SDS011;1801;51.050;6.246;2023-04-03T08:51:43;8.33;;;2.00;;
3573;SDS011;1801;51.050;6.246;2023-04-03T08:54:16;5.43;;;2.23;;
3573;SDS011;1801;51.050;6.246;2023-04-03T08:56:45;14.07;;;4.90;;
3573;SDS011;1801;51.050;6.246;2023-04-03T08:59:12;2.63;;;1.80;;
3573;SDS011;1801;51.050;6.246;2023-04-03T09:01:39;8.13;;;2.30;;
3573;SDS011;1801;51.050;6.246;2023-04-03T09:04:15;3.53;;;1.90;;
3573;SDS011;1801;51.050;6.246;2023-04-03T09:06:42;7.33;;;2.10;;
3573;SDS011;1801;51.050;6.246;2023-04-03T09:14:15;1.93;;;1.50;;
3573;SDS011;1801;51.050;6.246;2023-04-03T09:16:52;1.67;;;1.37;;
3573;SDS011;1801;51.050;6.246;2023-04-03T09:21:47;4.53;;;2.00;;
3573;SDS011;1801;51.050;6.246;2023-04-03T09:24:13;6.10;;;1.70;;
3573;SDS011;1801;51.050;6.246;2023-04-03T09:29:08;5.47;;;1.77;;
3573;SDS011;1801;51.050;6.246;2023-04-03T09:31:39;6.00;;;2.13;;
3573;SDS011;1801;51.050;6.246;2023-04-03T09:34:10;2.10;;;1.53;;
3573;SDS011;1801;51.050;6.246;2023-04-03T09:36:44;6.07;;;2.50;;
3573;SDS011;1801;51.050;6.246;2023-04-03T09:39:11;3.30;;;1.40;;
3573;SDS011;1801;51.050;6.246;2023-04-03T09:41:37;7.83;;;1.47;;
3573;SDS011;1801;51.050;6.246;2023-04-03T09:44:02;5.17;;;1.67;;
3573;SDS011;1801;51.050;6.246;2023-04-03T09:46:29;3.67;;;1.53;;
3573;SDS011;1801;51.050;6.246;2023-04-03T09:48:56;5.07;;;2.43;;
3573;SDS011;1801;51.050;6.246;2023-04-03T09:51:24;5.33;;;1.53;;
3573;SDS011;1801;51.050;6.246;2023-04-03T09:53:49;4.00;;;1.43;;
3573;SDS011;1801;51.050;6.246;2023-04-03T09:58:40;4.00;;;1.30;;
3573;SDS011;1801;51.050;6.246;2023-04-03T10:01:06;2.60;;;1.40;;
3573;SDS011;1801;51.050;6.246;2023-04-03T10:03:35;2.03;;;1.80;;
3573;SDS011;1801;51.050;6.246;2023-04-03T10:06:01;1.27;;;1.17;;
3573;SDS011;1801;51.050;6.246;2023-04-03T10:08:33;2.40;;;1.03;;
3573;SDS011;1801;51.050;6.246;2023-04-03T10:13:35;5.70;;;1.80;;
3573;SDS011;1801;51.050;6.246;2023-04-03T10:16:04;5.97;;;1.57;;
3573;SDS011;1801;51.050;6.246;2023-04-03T10:18:41;3.70;;;1.67;;
3573;SDS011;1801;51.050;6.246;2023-04-03T10:21:20;4.70;;;1.30;;
3573;SDS011;1801;51.050;6.246;2023-04-03T10:23:51;2.37;;;1.47;;
3573;SDS011;1801;51.050;6.246;2023-04-03T10:26:43;4.13;;;1.53;;
3573;SDS011;1801;51.050;6.246;2023-04-03T10:29:21;2.70;;;1.50;;
3573;SDS011;1801;51.050;6.246;2023-04-03T10:36:43;3.33;;;1.03;;
3573;SDS011;1801;51.050;6.246;2023-04-03T10:39:13;3.93;;;1.30;;
3573;SDS011;1801;51.050;6.246;2023-04-03T10:41:43;3.60;;;1.90;;
3573;SDS011;1801;51.050;6.246;2023-04-03T10:46:53;3.27;;;1.37;;
3573;SDS011;1801;51.050;6.246;2023-04-03T10:52:01;2.03;;;1.10;;
3573;SDS011;1801;51.050;6.246;2023-04-03T10:54:55;2.20;;;1.20;;
3573;SDS011;1801;51.050;6.246;2023-04-03T10:57:15;4.40;;;1.37;;
3573;SDS011;1801;51.050;6.246;2023-04-03T10:59:43;3.10;;;1.30;;
3573;SDS011;1801;51.050;6.246;2023-04-03T11:02:15;2.50;;;1.30;;
3573;SDS011;1801;51.050;6.246;2023-04-03T11:04:41;3.10;;;1.00;;
3573;SDS011;1801;51.050;6.246;2023-04-03T11:07:14;1.83;;;1.10;;
3573;SDS011;1801;51.050;6.246;2023-04-03T11:09:40;4.50;;;1.60;;
3573;SDS011;1801;51.050;6.246;2023-04-03T11:12:11;2.93;;;1.57;;
3573;SDS011;1801;51.050;6.246;2023-04-03T11:14:38;3.90;;;1.40;;
3573;SDS011;1801;51.050;6.246;2023-04-03T11:22:23;2.03;;;0.90;;
3573;SDS011;1801;51.050;6.246;2023-04-03T11:24:55;2.90;;;1.10;;
3573;SDS011;1801;51.050;6.246;2023-04-03T11:27:22;2.30;;;1.50;;
3573;SDS011;1801;51.050;6.246;2023-04-03T11:29:48;3.20;;;1.47;;
3573;SDS011;1801;51.050;6.246;2023-04-03T11:32:29;3.87;;;1.93;;
3573;SDS011;1801;51.050;6.246;2023-04-03T11:34:59;4.60;;;1.50;;
3573;SDS011;1801;51.050;6.246;2023-04-03T11:37:39;6.93;;;1.43;;
3573;SDS011;1801;51.050;6.246;2023-04-03T11:40:06;4.83;;;1.77;;
3573;SDS011;1801;51.050;6.246;2023-04-03T11:42:37;14.03;;;1.60;;
3573;SDS011;1801;51.050;6.246;2023-04-03T11:47:44;1.70;;;1.60;;
3573;SDS011;1801;51.050;6.246;2023-04-03T11:52:55;2.50;;;1.40;;
3573;SDS011;1801;51.050;6.246;2023-04-03T12:03:29;2.70;;;1.50;;
3573;SDS011;1801;51.050;6.246;2023-04-03T12:08:24;5.23;;;1.50;;
3573;SDS011;1801;51.050;6.246;2023-04-03T12:13:33;3.97;;;1.50;;
3573;SDS011;1801;51.050;6.246;2023-04-03T12:15:59;2.10;;;1.37;;
3573;SDS011;1801;51.050;6.246;2023-04-03T12:21:02;2.40;;;1.23;;
3573;SDS011;1801;51.050;6.246;2023-04-03T12:23:35;6.97;;;1.90;;
3573;SDS011;1801;51.050;6.246;2023-04-03T12:28:46;3.20;;;1.50;;
3573;SDS011;1801;51.050;6.246;2023-04-03T12:31:13;4.40;;;1.80;;
3573;SDS011;1801;51.050;6.246;2023-04-03T12:36:35;7.07;;;1.97;;
3573;SDS011;1801;51.050;6.246;2023-04-03T12:39:05;3.50;;;1.40;;
3573;SDS011;1801;51.050;6.246;2023-04-03T12:41:37;2.80;;;2.17;;
3573;SDS011;1801;51.050;6.246;2023-04-03T12:46:38;6.83;;;1.73;;
3573;SDS011;1801;51.050;6.246;2023-04-03T12:49:13;5.80;;;1.57;;
3573;SDS011;1801;51.050;6.246;2023-04-03T12:51:42;1.37;;;1.23;;
3573;SDS011;1801;51.050;6.246;2023-04-03T12:54:20;1.83;;;1.13;;
3573;SDS011;1801;51.050;6.246;2023-04-03T12:56:46;2.83;;;1.10;;
3573;SDS011;1801;51.050;6.246;2023-04-03T12:59:25;2.03;;;1.17;;
3573;SDS011;1801;51.050;6.246;2023-04-03T13:01:57;3.57;;;1.60;;
3573;SDS011;1801;51.050;6.246;2023-04-03T13:04:23;4.00;;;1.63;;
3573;SDS011;1801;51.050;6.246;2023-04-03T13:06:48;3.43;;;1.50;;
3573;SDS011;1801;51.050;6.246;2023-04-03T13:09:19;2.20;;;1.30;;
3573;SDS011;1801;51.050;6.246;2023-04-03T13:11:46;1.50;;;1.13;;
3573;SDS011;1801;51.050;6.246;2023-04-03T13:14:17;3.67;;;1.73;;
3573;SDS011;1801;51.050;6.246;2023-04-03T13:16:52;2.27;;;1.53;;
3573;SDS011;1801;51.050;6.246;2023-04-03T13:19:17;2.47;;;1.17;;
3573;SDS011;1801;51.050;6.246;2023-04-03T13:21:43;5.70;;;1.53;;
3573;SDS011;1801;51.050;6.246;2023-04-03T13:24:09;2.10;;;1.40;;
3573;SDS011;1801;51.050;6.246;2023-04-03T13:26:34;5.13;;;1.33;;
3573;SDS011;1801;51.050;6.246;2023-04-03T13:29:05;5.23;;;2.73;;
3573;SDS011;1801;51.050;6.246;2023-04-03T13:31:35;4.17;;;1.43;;
3573;SDS011;1801;51.050;6.246;2023-04-03T13:34:10;2.30;;;1.50;;
3573;SDS011;1801;51.050;6.246;2023-04-03T13:39:05;4.20;;;1.37;;
3573;SDS011;1801;51.050;6.246;2023-04-03T13:41:32;2.23;;;1.53;;
3573;SDS011;1801;51.050;6.246;2023-04-03T13:44:14;4.40;;;1.23;;
3573;SDS011;1801;51.050;6.246;2023-04-03T13:46:40;3.70;;;1.50;;
3573;SDS011;1801;51.050;6.246;2023-04-03T13:49:17;2.47;;;1.57;;
3573;SDS011;1801;51.050;6.246;2023-04-03T13:51:42;3.80;;;1.37;;
3573;SDS011;1801;51.050;6.246;2023-04-03T13:54:15;5.13;;;1.30;;
3573;SDS011;1801;51.050;6.246;2023-04-03T13:56:42;2.53;;;0.90;;
3573;SDS011;1801;51.050;6.246;2023-04-03T14:06:46;2.63;;;1.40;;
3573;SDS011;1801;51.050;6.246;2023-04-03T14:09:12;2.70;;;1.47;;
3573;SDS011;1801;51.050;6.246;2023-04-03T14:11:37;5.07;;;1.37;;
3573;SDS011;1801;51.050;6.246;2023-04-03T14:14:06;3.40;;;1.47;;
3573;SDS011;1801;51.050;6.246;2023-04-03T14:16:37;1.60;;;1.00;;
3573;SDS011;1801;51.050;6.246;2023-04-03T14:19:03;4.60;;;2.00;;
3573;SDS011;1801;51.050;6.246;2023-04-03T14:21:28;1.63;;;1.13;;
3573;SDS011;1801;51.050;6.246;2023-04-03T14:23:53;5.70;;;1.10;;
3573;SDS011;1801;51.050;6.246;2023-04-03T14:26:20;3.10;;;1.30;;
3573;SDS011;1801;51.050;6.246;2023-04-03T14:28:46;5.80;;;1.30;;
3573;SDS011;1801;51.050;6.246;2023-04-03T14:31:12;2.83;;;1.40;;
3573;SDS011;1801;51.050;6.246;2023-04-03T14:33:38;2.70;;;2.50;;
3573;SDS011;1801;51.050;6.246;2023-04-03T14:36:36;3.60;;;1.53;;
3573;SDS011;1801;51.050;6.246;2023-04-03T14:38:55;6.80;;;1.90;;
3573;SDS011;1801;51.050;6.246;2023-04-03T14:41:22;4.47;;;1.80;;
3573;SDS011;1801;51.050;6.246;2023-04-03T14:43:47;2.77;;;1.50;;
3573;SDS011;1801;51.050;6.246;2023-04-03T14:46:14;5.03;;;2.50;;
3573;SDS011;1801;51.050;6.246;2023-04-03T14:48:40;3.13;;;1.90;;
3573;SDS011;1801;51.050;6.246;2023-04-03T14:51:05;4.37;;;1.90;;
3573;SDS011;1801;51.050;6.246;2023-04-03T14:53:30;2.80;;;1.37;;
3573;SDS011;1801;51.050;6.246;2023-04-03T14:55:57;2.70;;;1.40;;
3573;SDS011;1801;51.050;6.246;2023-04-03T14:58:23;1.80;;;1.43;;
3573;SDS011;1801;51.050;6.246;2023-04-03T15:00:48;6.30;;;2.30;;
3573;SDS011;1801;51.050;6.246;2023-04-03T15:03:14;6.10;;;1.33;;
3573;SDS011;1801;51.050;6.246;2023-04-03T15:05:40;3.73;;;1.60;;
3573;SDS011;1801;51.050;6.246;2023-04-03T15:08:08;2.40;;;1.60;;
3573;SDS011;1801;51.050;6.246;2023-04-03T15:10:38;2.30;;;1.23;;
3573;SDS011;1801;51.050;6.246;2023-04-03T15:13:03;2.30;;;1.43;;
3573;SDS011;1801;51.050;6.246;2023-04-03T15:15:29;5.70;;;3.10;;
3573;SDS011;1801;51.050;6.246;2023-04-03T15:17:55;3.63;;;2.00;;
3573;SDS011;1801;51.050;6.246;2023-04-03T15:20:23;8.73;;;1.83;;
3573;SDS011;1801;51.050;6.246;2023-04-03T15:22:49;4.17;;;1.40;;
3573;SDS011;1801;51.050;6.246;2023-04-03T15:25:14;6.23;;;1.80;;
3573;SDS011;1801;51.050;6.246;2023-04-03T15:27:40;3.03;;;1.47;;
3573;SDS011;1801;51.050;6.246;2023-04-03T15:30:05;1.73;;;1.30;;
3573;SDS011;1801;51.050;6.246;2023-04-03T15:32:31;3.00;;;1.60;;
3573;SDS011;1801;51.050;6.246;2023-04-03T15:34:56;3.07;;;1.80;;
3573;SDS011;1801;51.050;6.246;2023-04-03T15:37:22;4.57;;;1.60;;
3573;SDS011;1801;51.050;6.246;2023-04-03T15:39:50;9.00;;;1.90;;
3573;SDS011;1801;51.050;6.246;2023-04-03T15:42:15;2.30;;;1.60;;
3573;SDS011;1801;51.050;6.246;2023-04-03T15:44:40;5.00;;;1.67;;
3573;SDS011;1801;51.050;6.246;2023-04-03T15:47:05;2.83;;;1.90;;
3573;SDS011;1801;51.050;6.246;2023-04-03T15:49:33;3.73;;;1.90;;
3573;SDS011;1801;51.050;6.246;2023-04-03T15:51:59;6.00;;;1.50;;
3573;SDS011;1801;51.050;6.246;2023-04-03T15:54:25;4.33;;;1.70;;
3573;SDS011;1801;51.050;6.246;2023-04-03T15:56:50;2.43;;;1.50;;
3573;SDS011;1801;51.050;6.246;2023-04-03T15:59:16;3.97;;;1.60;;
3573;SDS011;1801;51.050;6.246;2023-04-03T16:01:41;4.10;;;2.27;;
3573;SDS011;1801;51.050;6.246;2023-04-03T16:04:07;6.43;;;1.80;;
3573;SDS011;1801;51.050;6.246;2023-04-03T16:06:33;2.60;;;1.50;;
3573;SDS011;1801;51.050;6.246;2023-04-03T16:08:58;3.20;;;2.10;;
3573;SDS011;1801;51.050;6.246;2023-04-03T16:11:24;2.73;;;1.47;;
3573;SDS011;1801;51.050;6.246;2023-04-03T16:13:51;3.93;;;2.90;;
3573;SDS011;1801;51.050;6.246;2023-04-03T16:16:16;3.40;;;1.27;;
3573;SDS011;1801;51.050;6.246;2023-04-03T16:18:41;3.73;;;2.03;;
3573;SDS011;1801;51.050;6.246;2023-04-03T16:21:06;3.27;;;1.53;;
3573;SDS011;1801;51.050;6.246;2023-04-03T16:23:32;1.33;;;1.23;;
3573;SDS011;1801;51.050;6.246;2023-04-03T16:25:58;2.57;;;1.50;;